sensor_id;sensor_type;location;lat;lon;timestamp;temperature;humidity
10390;DHT22;5241;47.830;12.972;2024-03-06T00:01:56;6.80;99.90
10390;DHT22;5241;47.830;12.972;2024-03-06T00:04:22;6.80;99.90
10390;DHT22;5241;47.830;12.972;2024-03-06T00:06:47;6.80;99.90
10390;DHT22;5241;47.830;12.972;2024-03-06T00:09:13;6.80;99.90
10390;DHT22;5241;47.830;12.972;2024-03-06T00:11:39;6.70;99.90
10390;DHT22;5241;47.830;12.972;2024-03-06T00:14:05;6.70;99.90
10390;DHT22;5241;47.830;12.972;2024-03-06T00:16:31;6.70;99.90
10390;DHT22;5241;47.830;12.972;2024-03-06T00:18:57;6.70;99.90
10390;DHT22;5241;47.830;12.972;2024-03-06T00:21:23;6.70;99.90
10390;DHT22;5241;47.830;12.972;2024-03-06T00:23:48;6.60;99.90
10390;DHT22;5241;47.830;12.972;2024-03-06T00:26:14;6.60;99.90
10390;DHT22;5241;47.830;12.972;2024-03-06T00:28:39;6.60;99.90
10390;DHT22;5241;47.830;12.972;2024-03-06T00:31:05;6.50;99.90
10390;DHT22;5241;47.830;12.972;2024-03-06T00:33:31;6.40;99.90
10390;DHT22;5241;47.830;12.972;2024-03-06T00:35:56;6.40;99.90
10390;DHT22;5241;47.830;12.972;2024-03-06T00:38:22;6.30;99.90
10390;DHT22;5241;47.830;12.972;2024-03-06T00:40:48;6.20;99.90
10390;DHT22;5241;47.830;12.972;2024-03-06T00:43:13;6.10;99.90
10390;DHT22;5241;47.830;12.972;2024-03-06T00:45:39;6.00;99.90
10390;DHT22;5241;47.830;12.972;2024-03-06T00:48:05;5.90;99.90
10390;DHT22;5241;47.830;12.972;2024-03-06T00:50:31;5.90;99.90
10390;DHT22;5241;47.830;12.972;2024-03-06T00:52:57;5.80;99.90
10390;DHT22;5241;47.830;12.972;2024-03-06T00:55:23;5.80;99.90
10390;DHT22;5241;47.830;12.972;2024-03-06T00:57:48;5.80;99.90
10390;DHT22;5241;47.830;12.972;2024-03-06T01:00:14;5.80;99.90
10390;DHT22;5241;47.830;12.972;2024-03-06T01:02:41;5.70;99.90
10390;DHT22;5241;47.830;12.972;2024-03-06T01:05:07;5.70;99.90
10390;DHT22;5241;47.830;12.972;2024-03-06T01:07:35;5.60;99.90
10390;DHT22;5241;47.830;12.972;2024-03-06T01:10:00;5.60;99.90
10390;DHT22;5241;47.830;12.972;2024-03-06T01:12:27;5.60;99.90
10390;DHT22;5241;47.830;12.972;2024-03-06T01:14:52;5.60;99.90
10390;DHT22;5241;47.830;12.972;2024-03-06T01:17:18;5.60;99.90
10390;DHT22;5241;47.830;12.972;2024-03-06T01:19:44;5.60;99.90
10390;DHT22;5241;47.830;12.972;2024-03-06T01:22:10;5.60;99.90
10390;DHT22;5241;47.830;12.972;2024-03-06T01:24:36;5.50;99.90
10390;DHT22;5241;47.830;12.972;2024-03-06T01:27:01;5.50;99.90
10390;DHT22;5241;47.830;12.972;2024-03-06T01:29:31;5.50;99.90
10390;DHT22;5241;47.830;12.972;2024-03-06T01:32:00;5.50;99.90
10390;DHT22;5241;47.830;12.972;2024-03-06T01:34:26;5.40;99.90
10390;DHT22;5241;47.830;12.972;2024-03-06T01:36:52;5.40;99.90
10390;DHT22;5241;47.830;12.972;2024-03-06T01:39:18;5.30;99.90
10390;DHT22;5241;47.830;12.972;2024-03-06T01:41:47;5.20;99.90
10390;DHT22;5241;47.830;12.972;2024-03-06T01:44:14;5.20;99.90
10390;DHT22;5241;47.830;12.972;2024-03-06T01:46:39;5.20;99.90
10390;DHT22;5241;47.830;12.972;2024-03-06T01:49:06;5.10;99.90
10390;DHT22;5241;47.830;12.972;2024-03-06T01:51:32;5.10;99.90
10390;DHT22;5241;47.830;12.972;2024-03-06T01:54:00;5.10;99.90
10390;DHT22;5241;47.830;12.972;2024-03-06T01:56:27;5.10;99.90
10390;DHT22;5241;47.830;12.972;2024-03-06T01:58:53;5.10;99.90
10390;DHT22;5241;47.830;12.972;2024-03-06T02:01:20;5.00;99.90
10390;DHT22;5241;47.830;12.972;2024-03-06T02:03:47;5.00;99.90
10390;DHT22;5241;47.830;12.972;2024-03-06T02:06:14;5.10;99.90
10390;DHT22;5241;47.830;12.972;2024-03-06T02:08:41;5.10;99.90
10390;DHT22;5241;47.830;12.972;2024-03-06T02:11:06;5.20;99.90
10390;DHT22;5241;47.830;12.972;2024-03-06T02:13:33;5.20;99.90
10390;DHT22;5241;47.830;12.972;2024-03-06T02:15:58;5.30;99.90
10390;DHT22;5241;47.830;12.972;2024-03-06T02:18:24;5.20;99.90
10390;DHT22;5241;47.830;12.972;2024-03-06T02:20:50;5.20;99.90
10390;DHT22;5241;47.830;12.972;2024-03-06T02:23:16;5.30;99.90
10390;DHT22;5241;47.830;12.972;2024-03-06T02:25:44;5.30;99.90
10390;DHT22;5241;47.830;12.972;2024-03-06T02:28:11;5.30;99.90
10390;DHT22;5241;47.830;12.972;2024-03-06T02:30:37;5.20;99.90
10390;DHT22;5241;47.830;12.972;2024-03-06T02:33:03;5.20;99.90
10390;DHT22;5241;47.830;12.972;2024-03-06T02:35:32;5.20;99.90
10390;DHT22;5241;47.830;12.972;2024-03-06T02:37:59;5.20;99.90
10390;DHT22;5241;47.830;12.972;2024-03-06T02:40:25;5.10;99.90
10390;DHT22;5241;47.830;12.972;2024-03-06T02:42:50;5.20;99.90
10390;DHT22;5241;47.830;12.972;2024-03-06T02:45:16;5.10;99.90
10390;DHT22;5241;47.830;12.972;2024-03-06T02:47:41;5.10;99.90
10390;DHT22;5241;47.830;12.972;2024-03-06T02:50:08;5.10;99.90
10390;DHT22;5241;47.830;12.972;2024-03-06T02:52:33;5.20;99.90
10390;DHT22;5241;47.830;12.972;2024-03-06T02:54:59;5.20;99.90
10390;DHT22;5241;47.830;12.972;2024-03-06T02:57:28;5.20;99.90
10390;DHT22;5241;47.830;12.972;2024-03-06T02:59:55;5.20;99.90
10390;DHT22;5241;47.830;12.972;2024-03-06T03:02:20;5.20;99.90
10390;DHT22;5241;47.830;12.972;2024-03-06T03:04:46;5.20;99.90
10390;DHT22;5241;47.830;12.972;2024-03-06T03:07:11;5.10;99.90
10390;DHT22;5241;47.830;12.972;2024-03-06T03:09:37;5.10;99.90
10390;DHT22;5241;47.830;12.972;2024-03-06T03:12:04;5.00;99.90
10390;DHT22;5241;47.830;12.972;2024-03-06T03:14:29;5.10;99.90
10390;DHT22;5241;47.830;12.972;2024-03-06T03:16:55;5.00;99.90
10390;DHT22;5241;47.830;12.972;2024-03-06T03:19:20;5.00;99.90
10390;DHT22;5241;47.830;12.972;2024-03-06T03:21:46;5.00;99.90
10390;DHT22;5241;47.830;12.972;2024-03-06T03:24:12;5.10;99.90
10390;DHT22;5241;47.830;12.972;2024-03-06T03:26:38;5.10;99.90
10390;DHT22;5241;47.830;12.972;2024-03-06T03:29:03;5.10;99.90
10390;DHT22;5241;47.830;12.972;2024-03-06T03:31:29;5.10;99.90
10390;DHT22;5241;47.830;12.972;2024-03-06T03:33:55;5.10;99.90
10390;DHT22;5241;47.830;12.972;2024-03-06T03:36:20;5.20;99.90
10390;DHT22;5241;47.830;12.972;2024-03-06T03:38:46;5.20;99.90
10390;DHT22;5241;47.830;12.972;2024-03-06T03:41:12;5.20;99.90
10390;DHT22;5241;47.830;12.972;2024-03-06T03:43:41;5.30;99.90
10390;DHT22;5241;47.830;12.972;2024-03-06T03:46:07;5.20;99.90
10390;DHT22;5241;47.830;12.972;2024-03-06T03:48:34;5.20;99.90
10390;DHT22;5241;47.830;12.972;2024-03-06T03:51:03;5.20;99.90
10390;DHT22;5241;47.830;12.972;2024-03-06T03:53:30;5.30;99.90
10390;DHT22;5241;47.830;12.972;2024-03-06T03:55:55;5.30;99.90
10390;DHT22;5241;47.830;12.972;2024-03-06T03:58:21;5.40;99.90
10390;DHT22;5241;47.830;12.972;2024-03-06T04:00:46;5.40;99.90
10390;DHT22;5241;47.830;12.972;2024-03-06T04:03:12;5.40;99.90
10390;DHT22;5241;47.830;12.972;2024-03-06T04:05:38;5.40;99.90
10390;DHT22;5241;47.830;12.972;2024-03-06T04:08:04;5.40;99.90
10390;DHT22;5241;47.830;12.972;2024-03-06T04:10:32;5.40;99.90
10390;DHT22;5241;47.830;12.972;2024-03-06T04:12:58;5.40;99.90
10390;DHT22;5241;47.830;12.972;2024-03-06T04:15:25;5.40;99.90
10390;DHT22;5241;47.830;12.972;2024-03-06T04:17:50;5.50;99.90
10390;DHT22;5241;47.830;12.972;2024-03-06T04:20:17;5.50;99.90
10390;DHT22;5241;47.830;12.972;2024-03-06T04:22:43;5.50;99.90
10390;DHT22;5241;47.830;12.972;2024-03-06T04:25:09;5.50;99.90
10390;DHT22;5241;47.830;12.972;2024-03-06T04:27:35;5.50;99.90
10390;DHT22;5241;47.830;12.972;2024-03-06T04:30:00;5.50;99.90
10390;DHT22;5241;47.830;12.972;2024-03-06T04:32:26;5.50;99.90
10390;DHT22;5241;47.830;12.972;2024-03-06T04:34:51;5.50;99.90
10390;DHT22;5241;47.830;12.972;2024-03-06T04:37:19;5.50;99.90
10390;DHT22;5241;47.830;12.972;2024-03-06T04:39:44;5.50;99.90
10390;DHT22;5241;47.830;12.972;2024-03-06T04:42:10;5.50;99.90
10390;DHT22;5241;47.830;12.972;2024-03-06T04:44:36;5.50;99.90
10390;DHT22;5241;47.830;12.972;2024-03-06T04:47:02;5.60;99.90
10390;DHT22;5241;47.830;12.972;2024-03-06T04:49:28;5.60;99.90
10390;DHT22;5241;47.830;12.972;2024-03-06T04:51:53;5.60;99.90
10390;DHT22;5241;47.830;12.972;2024-03-06T04:54:19;5.70;99.90
10390;DHT22;5241;47.830;12.972;2024-03-06T04:56:44;5.70;99.90
10390;DHT22;5241;47.830;12.972;2024-03-06T04:59:09;5.80;99.90
10390;DHT22;5241;47.830;12.972;2024-03-06T05:01:35;5.80;99.90
10390;DHT22;5241;47.830;12.972;2024-03-06T05:04:01;5.80;99.90
10390;DHT22;5241;47.830;12.972;2024-03-06T05:06:26;5.90;99.90
10390;DHT22;5241;47.830;12.972;2024-03-06T05:08:52;5.90;99.90
10390;DHT22;5241;47.830;12.972;2024-03-06T05:11:17;5.90;99.90
10390;DHT22;5241;47.830;12.972;2024-03-06T05:13:43;6.00;99.90
10390;DHT22;5241;47.830;12.972;2024-03-06T05:16:08;6.00;99.90
10390;DHT22;5241;47.830;12.972;2024-03-06T05:18:35;6.00;99.90
10390;DHT22;5241;47.830;12.972;2024-03-06T05:21:00;6.00;99.90
10390;DHT22;5241;47.830;12.972;2024-03-06T05:23:26;6.10;99.90
10390;DHT22;5241;47.830;12.972;2024-03-06T05:25:52;6.00;99.90
10390;DHT22;5241;47.830;12.972;2024-03-06T05:28:17;6.00;99.90
10390;DHT22;5241;47.830;12.972;2024-03-06T05:30:43;6.00;99.90
10390;DHT22;5241;47.830;12.972;2024-03-06T05:33:09;6.10;99.90
10390;DHT22;5241;47.830;12.972;2024-03-06T05:35:34;6.10;99.90
10390;DHT22;5241;47.830;12.972;2024-03-06T05:38:00;6.10;99.90
10390;DHT22;5241;47.830;12.972;2024-03-06T05:40:25;6.10;99.90
10390;DHT22;5241;47.830;12.972;2024-03-06T05:42:51;6.00;99.90
10390;DHT22;5241;47.830;12.972;2024-03-06T05:45:16;6.10;99.90
10390;DHT22;5241;47.830;12.972;2024-03-06T05:47:42;6.00;99.90
10390;DHT22;5241;47.830;12.972;2024-03-06T05:50:08;6.00;99.90
10390;DHT22;5241;47.830;12.972;2024-03-06T05:52:36;6.00;99.90
10390;DHT22;5241;47.830;12.972;2024-03-06T05:55:02;6.00;99.90
10390;DHT22;5241;47.830;12.972;2024-03-06T05:57:29;6.00;99.90
10390;DHT22;5241;47.830;12.972;2024-03-06T05:59:54;5.90;99.90
10390;DHT22;5241;47.830;12.972;2024-03-06T06:02:20;6.00;99.90
10390;DHT22;5241;47.830;12.972;2024-03-06T06:04:46;5.90;99.90
10390;DHT22;5241;47.830;12.972;2024-03-06T06:07:11;6.00;99.90
10390;DHT22;5241;47.830;12.972;2024-03-06T06:09:37;5.90;99.90
10390;DHT22;5241;47.830;12.972;2024-03-06T06:12:02;5.90;99.90
10390;DHT22;5241;47.830;12.972;2024-03-06T06:14:28;5.90;99.90
10390;DHT22;5241;47.830;12.972;2024-03-06T06:16:55;5.90;99.90
10390;DHT22;5241;47.830;12.972;2024-03-06T06:19:21;5.90;99.90
10390;DHT22;5241;47.830;12.972;2024-03-06T06:21:47;5.90;99.90
10390;DHT22;5241;47.830;12.972;2024-03-06T06:24:13;5.90;99.90
10390;DHT22;5241;47.830;12.972;2024-03-06T06:26:39;5.90;99.90
10390;DHT22;5241;47.830;12.972;2024-03-06T06:29:05;5.90;99.90
10390;DHT22;5241;47.830;12.972;2024-03-06T06:31:30;5.90;99.90
10390;DHT22;5241;47.830;12.972;2024-03-06T06:33:56;5.90;99.90
10390;DHT22;5241;47.830;12.972;2024-03-06T06:36:22;5.90;99.90
10390;DHT22;5241;47.830;12.972;2024-03-06T06:38:48;5.90;99.90
10390;DHT22;5241;47.830;12.972;2024-03-06T06:41:14;5.90;99.90
10390;DHT22;5241;47.830;12.972;2024-03-06T06:43:40;5.90;99.90
10390;DHT22;5241;47.830;12.972;2024-03-06T06:46:07;5.90;99.90
10390;DHT22;5241;47.830;12.972;2024-03-06T06:48:32;5.90;99.90
10390;DHT22;5241;47.830;12.972;2024-03-06T06:51:02;5.90;99.90
10390;DHT22;5241;47.830;12.972;2024-03-06T06:53:31;6.00;99.90
10390;DHT22;5241;47.830;12.972;2024-03-06T06:55:57;6.00;99.90
10390;DHT22;5241;47.830;12.972;2024-03-06T06:58:23;5.90;99.90
10390;DHT22;5241;47.830;12.972;2024-03-06T07:00:49;5.90;99.90
10390;DHT22;5241;47.830;12.972;2024-03-06T07:03:16;5.90;99.90
10390;DHT22;5241;47.830;12.972;2024-03-06T07:05:41;5.90;99.90
10390;DHT22;5241;47.830;12.972;2024-03-06T07:08:07;5.90;99.90
10390;DHT22;5241;47.830;12.972;2024-03-06T07:10:33;5.90;99.90
10390;DHT22;5241;47.830;12.972;2024-03-06T07:13:01;5.90;99.90
10390;DHT22;5241;47.830;12.972;2024-03-06T07:15:28;5.90;99.90
10390;DHT22;5241;47.830;12.972;2024-03-06T07:17:53;5.90;99.90
10390;DHT22;5241;47.830;12.972;2024-03-06T07:20:19;5.80;99.90
10390;DHT22;5241;47.830;12.972;2024-03-06T07:22:45;5.70;99.90
10390;DHT22;5241;47.830;12.972;2024-03-06T07:25:10;5.80;99.90
10390;DHT22;5241;47.830;12.972;2024-03-06T07:27:36;5.80;99.90
10390;DHT22;5241;47.830;12.972;2024-03-06T07:30:01;5.80;99.90
10390;DHT22;5241;47.830;12.972;2024-03-06T07:32:27;5.80;99.90
10390;DHT22;5241;47.830;12.972;2024-03-06T07:34:53;5.70;99.90
10390;DHT22;5241;47.830;12.972;2024-03-06T07:37:18;5.70;99.90
10390;DHT22;5241;47.830;12.972;2024-03-06T07:39:44;5.70;99.90
10390;DHT22;5241;47.830;12.972;2024-03-06T07:42:11;5.70;99.90
10390;DHT22;5241;47.830;12.972;2024-03-06T07:44:36;5.60;99.90
10390;DHT22;5241;47.830;12.972;2024-03-06T07:47:02;5.60;99.90
10390;DHT22;5241;47.830;12.972;2024-03-06T07:49:29;5.70;99.90
10390;DHT22;5241;47.830;12.972;2024-03-06T07:51:54;5.60;99.90
10390;DHT22;5241;47.830;12.972;2024-03-06T07:54:20;5.50;99.90
10390;DHT22;5241;47.830;12.972;2024-03-06T07:56:46;5.50;99.90
10390;DHT22;5241;47.830;12.972;2024-03-06T07:59:12;5.50;99.90
10390;DHT22;5241;47.830;12.972;2024-03-06T08:01:38;5.50;99.90
10390;DHT22;5241;47.830;12.972;2024-03-06T08:04:04;5.50;99.90
10390;DHT22;5241;47.830;12.972;2024-03-06T08:06:29;5.50;99.90
10390;DHT22;5241;47.830;12.972;2024-03-06T08:08:59;5.50;99.90
10390;DHT22;5241;47.830;12.972;2024-03-06T08:11:24;5.50;99.90
10390;DHT22;5241;47.830;12.972;2024-03-06T08:13:56;5.50;99.90
10390;DHT22;5241;47.830;12.972;2024-03-06T08:16:22;5.50;99.90
10390;DHT22;5241;47.830;12.972;2024-03-06T08:18:47;5.50;99.90
10390;DHT22;5241;47.830;12.972;2024-03-06T08:21:13;5.60;99.90
10390;DHT22;5241;47.830;12.972;2024-03-06T08:23:38;5.60;99.90
10390;DHT22;5241;47.830;12.972;2024-03-06T08:26:04;5.50;99.90
10390;DHT22;5241;47.830;12.972;2024-03-06T08:28:29;5.50;99.90
10390;DHT22;5241;47.830;12.972;2024-03-06T08:30:55;5.50;99.90
10390;DHT22;5241;47.830;12.972;2024-03-06T08:33:20;5.60;99.90
10390;DHT22;5241;47.830;12.972;2024-03-06T08:35:47;5.60;99.90
10390;DHT22;5241;47.830;12.972;2024-03-06T08:38:13;5.60;99.90
10390;DHT22;5241;47.830;12.972;2024-03-06T08:40:39;5.50;99.90
10390;DHT22;5241;47.830;12.972;2024-03-06T08:43:06;5.50;99.90
10390;DHT22;5241;47.830;12.972;2024-03-06T08:45:31;5.50;99.90
10390;DHT22;5241;47.830;12.972;2024-03-06T08:47:57;5.50;99.90
10390;DHT22;5241;47.830;12.972;2024-03-06T08:50:23;5.60;99.90
10390;DHT22;5241;47.830;12.972;2024-03-06T08:52:48;5.60;99.90
10390;DHT22;5241;47.830;12.972;2024-03-06T08:55:14;5.60;99.90
10390;DHT22;5241;47.830;12.972;2024-03-06T08:57:40;5.60;99.90
10390;DHT22;5241;47.830;12.972;2024-03-06T09:00:07;5.60;99.90
10390;DHT22;5241;47.830;12.972;2024-03-06T09:02:37;5.60;99.90
10390;DHT22;5241;47.830;12.972;2024-03-06T09:05:06;5.50;99.90
10390;DHT22;5241;47.830;12.972;2024-03-06T09:07:32;5.50;99.90
10390;DHT22;5241;47.830;12.972;2024-03-06T09:10:03;5.50;99.90
10390;DHT22;5241;47.830;12.972;2024-03-06T09:12:31;5.50;99.90
10390;DHT22;5241;47.830;12.972;2024-03-06T09:14:56;5.50;99.90
10390;DHT22;5241;47.830;12.972;2024-03-06T09:17:22;5.50;99.90
10390;DHT22;5241;47.830;12.972;2024-03-06T09:19:47;5.50;99.90
10390;DHT22;5241;47.830;12.972;2024-03-06T09:22:13;5.50;99.90
10390;DHT22;5241;47.830;12.972;2024-03-06T09:24:38;5.50;99.90
10390;DHT22;5241;47.830;12.972;2024-03-06T09:27:04;5.50;99.90
10390;DHT22;5241;47.830;12.972;2024-03-06T09:29:30;5.50;99.90
10390;DHT22;5241;47.830;12.972;2024-03-06T09:31:56;5.50;99.90
10390;DHT22;5241;47.830;12.972;2024-03-06T09:34:21;5.50;99.90
10390;DHT22;5241;47.830;12.972;2024-03-06T09:36:48;5.40;99.90
10390;DHT22;5241;47.830;12.972;2024-03-06T09:39:14;5.40;99.90
10390;DHT22;5241;47.830;12.972;2024-03-06T09:41:45;5.40;99.90
10390;DHT22;5241;47.830;12.972;2024-03-06T09:44:11;5.40;99.90
10390;DHT22;5241;47.830;12.972;2024-03-06T09:46:37;5.40;99.90
10390;DHT22;5241;47.830;12.972;2024-03-06T09:49:03;5.40;99.90
10390;DHT22;5241;47.830;12.972;2024-03-06T09:51:29;5.40;99.90
10390;DHT22;5241;47.830;12.972;2024-03-06T09:53:56;5.50;99.90
10390;DHT22;5241;47.830;12.972;2024-03-06T09:56:21;5.50;99.90
10390;DHT22;5241;47.830;12.972;2024-03-06T09:58:47;5.50;99.90
10390;DHT22;5241;47.830;12.972;2024-03-06T10:01:14;5.50;99.90
10390;DHT22;5241;47.830;12.972;2024-03-06T10:03:40;5.40;99.90
10390;DHT22;5241;47.830;12.972;2024-03-06T10:06:09;5.40;99.90
10390;DHT22;5241;47.830;12.972;2024-03-06T10:08:34;5.50;99.90
10390;DHT22;5241;47.830;12.972;2024-03-06T10:11:00;5.50;99.90
10390;DHT22;5241;47.830;12.972;2024-03-06T10:13:26;5.60;99.90
10390;DHT22;5241;47.830;12.972;2024-03-06T10:16:03;5.60;99.90
10390;DHT22;5241;47.830;12.972;2024-03-06T10:18:30;5.60;99.90
10390;DHT22;5241;47.830;12.972;2024-03-06T10:20:56;5.60;99.90
10390;DHT22;5241;47.830;12.972;2024-03-06T10:23:22;5.60;99.90
10390;DHT22;5241;47.830;12.972;2024-03-06T10:25:49;5.50;99.90
10390;DHT22;5241;47.830;12.972;2024-03-06T10:28:20;5.50;99.90
10390;DHT22;5241;47.830;12.972;2024-03-06T10:30:46;5.50;99.90
10390;DHT22;5241;47.830;12.972;2024-03-06T10:33:13;5.50;99.90
10390;DHT22;5241;47.830;12.972;2024-03-06T10:35:43;5.50;99.90
10390;DHT22;5241;47.830;12.972;2024-03-06T10:38:09;5.50;99.90
10390;DHT22;5241;47.830;12.972;2024-03-06T10:40:37;5.50;99.90
10390;DHT22;5241;47.830;12.972;2024-03-06T10:43:05;5.50;99.90
10390;DHT22;5241;47.830;12.972;2024-03-06T10:45:50;5.50;99.90
10390;DHT22;5241;47.830;12.972;2024-03-06T10:48:17;5.60;99.90
10390;DHT22;5241;47.830;12.972;2024-03-06T10:50:45;5.60;99.90
10390;DHT22;5241;47.830;12.972;2024-03-06T10:53:16;5.50;99.90
10390;DHT22;5241;47.830;12.972;2024-03-06T10:55:45;5.50;99.90
10390;DHT22;5241;47.830;12.972;2024-03-06T10:58:11;5.50;99.90
10390;DHT22;5241;47.830;12.972;2024-03-06T11:00:43;5.50;99.90
10390;DHT22;5241;47.830;12.972;2024-03-06T11:03:10;5.50;99.90
10390;DHT22;5241;47.830;12.972;2024-03-06T11:05:39;5.50;99.90
10390;DHT22;5241;47.830;12.972;2024-03-06T11:08:15;5.60;99.90
10390;DHT22;5241;47.830;12.972;2024-03-06T11:10:42;5.50;99.90
10390;DHT22;5241;47.830;12.972;2024-03-06T11:15:47;5.50;99.90
10390;DHT22;5241;47.830;12.972;2024-03-06T11:23:31;5.60;99.90
10390;DHT22;5241;47.830;12.972;2024-03-06T11:26:01;5.60;99.90
10390;DHT22;5241;47.830;12.972;2024-03-06T11:28:30;5.60;99.90
10390;DHT22;5241;47.830;12.972;2024-03-06T11:31:03;5.60;99.90
10390;DHT22;5241;47.830;12.972;2024-03-06T11:44:14;5.50;99.90
10390;DHT22;5241;47.830;12.972;2024-03-06T11:46:44;5.50;99.90
10390;DHT22;5241;47.830;12.972;2024-03-06T11:49:23;5.50;99.90
10390;DHT22;5241;47.830;12.972;2024-03-06T11:51:53;5.60;99.90
10390;DHT22;5241;47.830;12.972;2024-03-06T11:54:19;5.50;99.90
10390;DHT22;5241;47.830;12.972;2024-03-06T11:56:50;5.50;99.90
10390;DHT22;5241;47.830;12.972;2024-03-06T11:59:17;5.50;99.90
10390;DHT22;5241;47.830;12.972;2024-03-06T12:01:43;5.60;99.90
10390;DHT22;5241;47.830;12.972;2024-03-06T12:04:09;5.60;99.90
10390;DHT22;5241;47.830;12.972;2024-03-06T12:06:35;5.60;99.90
10390;DHT22;5241;47.830;12.972;2024-03-06T12:09:02;5.60;99.90
10390;DHT22;5241;47.830;12.972;2024-03-06T12:11:28;5.60;99.90
10390;DHT22;5241;47.830;12.972;2024-03-06T12:13:56;5.60;99.90
10390;DHT22;5241;47.830;12.972;2024-03-06T12:16:22;5.60;99.90
10390;DHT22;5241;47.830;12.972;2024-03-06T12:18:54;5.60;99.90
10390;DHT22;5241;47.830;12.972;2024-03-06T12:21:30;5.70;99.90
10390;DHT22;5241;47.830;12.972;2024-03-06T12:24:08;5.70;99.90
10390;DHT22;5241;47.830;12.972;2024-03-06T12:26:36;5.70;99.90
10390;DHT22;5241;47.830;12.972;2024-03-06T12:29:10;5.70;99.90
10390;DHT22;5241;47.830;12.972;2024-03-06T12:31:37;5.80;99.90
10390;DHT22;5241;47.830;12.972;2024-03-06T12:34:04;5.70;99.90
10390;DHT22;5241;47.830;12.972;2024-03-06T12:36:30;5.80;99.90
10390;DHT22;5241;47.830;12.972;2024-03-06T12:38:58;5.90;99.90
10390;DHT22;5241;47.830;12.972;2024-03-06T12:41:24;5.80;99.90
10390;DHT22;5241;47.830;12.972;2024-03-06T12:43:52;5.90;99.90
10390;DHT22;5241;47.830;12.972;2024-03-06T12:46:17;5.80;99.90
10390;DHT22;5241;47.830;12.972;2024-03-06T12:48:44;5.90;99.90
10390;DHT22;5241;47.830;12.972;2024-03-06T12:51:10;5.90;99.90
10390;DHT22;5241;47.830;12.972;2024-03-06T12:53:35;5.90;99.90
10390;DHT22;5241;47.830;12.972;2024-03-06T12:56:01;5.90;99.90
10390;DHT22;5241;47.830;12.972;2024-03-06T12:58:27;6.00;99.90
10390;DHT22;5241;47.830;12.972;2024-03-06T13:00:53;6.00;99.90
10390;DHT22;5241;47.830;12.972;2024-03-06T13:03:19;6.00;99.90
10390;DHT22;5241;47.830;12.972;2024-03-06T13:05:45;6.10;99.90
10390;DHT22;5241;47.830;12.972;2024-03-06T13:08:11;6.00;99.90
10390;DHT22;5241;47.830;12.972;2024-03-06T13:10:40;6.10;99.90
10390;DHT22;5241;47.830;12.972;2024-03-06T13:13:05;6.10;99.90
10390;DHT22;5241;47.830;12.972;2024-03-06T13:15:32;6.00;99.90
10390;DHT22;5241;47.830;12.972;2024-03-06T13:17:59;6.10;99.90
10390;DHT22;5241;47.830;12.972;2024-03-06T13:20:26;6.00;99.90
10390;DHT22;5241;47.830;12.972;2024-03-06T13:22:51;6.10;99.90
10390;DHT22;5241;47.830;12.972;2024-03-06T13:25:17;6.10;99.90
10390;DHT22;5241;47.830;12.972;2024-03-06T13:27:43;6.20;99.90
10390;DHT22;5241;47.830;12.972;2024-03-06T13:30:09;6.20;99.90
10390;DHT22;5241;47.830;12.972;2024-03-06T13:32:35;6.10;99.90
10390;DHT22;5241;47.830;12.972;2024-03-06T13:35:00;6.10;99.90
10390;DHT22;5241;47.830;12.972;2024-03-06T13:37:26;6.10;99.90
10390;DHT22;5241;47.830;12.972;2024-03-06T13:39:52;6.20;99.90
10390;DHT22;5241;47.830;12.972;2024-03-06T13:42:18;6.10;99.90
10390;DHT22;5241;47.830;12.972;2024-03-06T13:44:43;6.10;99.90
10390;DHT22;5241;47.830;12.972;2024-03-06T13:47:15;6.10;99.90
10390;DHT22;5241;47.830;12.972;2024-03-06T13:49:43;6.00;99.90
10390;DHT22;5241;47.830;12.972;2024-03-06T13:52:10;6.00;99.90
10390;DHT22;5241;47.830;12.972;2024-03-06T13:54:39;6.10;99.90
10390;DHT22;5241;47.830;12.972;2024-03-06T13:57:08;6.00;99.90
10390;DHT22;5241;47.830;12.972;2024-03-06T13:59:34;6.00;99.90
10390;DHT22;5241;47.830;12.972;2024-03-06T14:02:01;6.10;99.90
10390;DHT22;5241;47.830;12.972;2024-03-06T14:04:28;6.10;99.90
10390;DHT22;5241;47.830;12.972;2024-03-06T14:06:54;6.20;99.90
10390;DHT22;5241;47.830;12.972;2024-03-06T14:09:19;6.20;99.90
10390;DHT22;5241;47.830;12.972;2024-03-06T14:11:45;6.10;99.90
10390;DHT22;5241;47.830;12.972;2024-03-06T14:14:11;6.10;99.90
10390;DHT22;5241;47.830;12.972;2024-03-06T14:16:38;6.10;99.90
10390;DHT22;5241;47.830;12.972;2024-03-06T14:19:05;6.10;99.90
10390;DHT22;5241;47.830;12.972;2024-03-06T14:21:30;6.10;99.90
10390;DHT22;5241;47.830;12.972;2024-03-06T14:23:58;6.10;99.90
10390;DHT22;5241;47.830;12.972;2024-03-06T14:26:24;6.10;99.90
10390;DHT22;5241;47.830;12.972;2024-03-06T14:28:50;6.10;99.90
10390;DHT22;5241;47.830;12.972;2024-03-06T14:31:15;6.10;99.90
10390;DHT22;5241;47.830;12.972;2024-03-06T14:33:41;6.10;99.90
10390;DHT22;5241;47.830;12.972;2024-03-06T14:36:07;6.10;99.90
10390;DHT22;5241;47.830;12.972;2024-03-06T14:38:33;6.10;99.90
10390;DHT22;5241;47.830;12.972;2024-03-06T14:40:58;6.20;99.90
10390;DHT22;5241;47.830;12.972;2024-03-06T14:43:25;6.20;99.90
10390;DHT22;5241;47.830;12.972;2024-03-06T14:45:51;6.10;99.90
10390;DHT22;5241;47.830;12.972;2024-03-06T14:48:16;6.10;99.90
10390;DHT22;5241;47.830;12.972;2024-03-06T14:50:43;6.10;99.90
10390;DHT22;5241;47.830;12.972;2024-03-06T14:53:08;6.20;99.90
10390;DHT22;5241;47.830;12.972;2024-03-06T14:55:34;6.20;99.90
10390;DHT22;5241;47.830;12.972;2024-03-06T14:57:59;6.30;99.90
10390;DHT22;5241;47.830;12.972;2024-03-06T15:00:25;6.40;99.90
10390;DHT22;5241;47.830;12.972;2024-03-06T15:02:51;6.50;99.90
10390;DHT22;5241;47.830;12.972;2024-03-06T15:05:16;6.40;99.90
10390;DHT22;5241;47.830;12.972;2024-03-06T15:07:42;6.40;99.90
10390;DHT22;5241;47.830;12.972;2024-03-06T15:10:08;6.30;99.90
10390;DHT22;5241;47.830;12.972;2024-03-06T15:12:34;6.30;99.90
10390;DHT22;5241;47.830;12.972;2024-03-06T15:15:02;6.30;99.90
10390;DHT22;5241;47.830;12.972;2024-03-06T15:17:29;6.30;99.90
10390;DHT22;5241;47.830;12.972;2024-03-06T15:19:57;6.40;99.90
10390;DHT22;5241;47.830;12.972;2024-03-06T15:22:22;6.40;99.90
10390;DHT22;5241;47.830;12.972;2024-03-06T15:24:48;6.50;99.90
10390;DHT22;5241;47.830;12.972;2024-03-06T15:27:16;6.40;99.90
10390;DHT22;5241;47.830;12.972;2024-03-06T15:29:42;6.30;99.90
10390;DHT22;5241;47.830;12.972;2024-03-06T15:32:07;6.20;99.90
10390;DHT22;5241;47.830;12.972;2024-03-06T15:34:33;6.20;99.90
10390;DHT22;5241;47.830;12.972;2024-03-06T15:36:58;6.30;99.90
10390;DHT22;5241;47.830;12.972;2024-03-06T15:39:25;6.40;99.90
10390;DHT22;5241;47.830;12.972;2024-03-06T15:41:50;6.30;99.90
10390;DHT22;5241;47.830;12.972;2024-03-06T15:44:16;6.20;99.90
10390;DHT22;5241;47.830;12.972;2024-03-06T15:46:41;6.20;99.90
10390;DHT22;5241;47.830;12.972;2024-03-06T15:49:19;6.20;99.90
10390;DHT22;5241;47.830;12.972;2024-03-06T15:51:46;6.20;99.90
10390;DHT22;5241;47.830;12.972;2024-03-06T15:54:12;6.10;99.90
10390;DHT22;5241;47.830;12.972;2024-03-06T15:56:37;6.10;99.90
10390;DHT22;5241;47.830;12.972;2024-03-06T15:59:03;6.10;99.90